createdAt,value
2022-10-04T00:01:01.656Z,15.99
2022-10-04T00:03:33.700Z,16.05
2022-10-04T00:06:03.050Z,16.05
2022-10-04T00:08:38.733Z,16.12
2022-10-04T00:11:14.504Z,15.97
2022-10-04T00:13:47.755Z,16.11
2022-10-04T00:16:24.700Z,16.08
2022-10-04T00:19:03.063Z,16.11
2022-10-04T00:22:10.216Z,15.98
2022-10-04T00:24:39.489Z,16.00
2022-10-04T00:27:21.509Z,15.74
2022-10-04T00:30:10.644Z,15.88
2022-10-04T00:33:02.098Z,15.94
2022-10-04T00:35:51.657Z,16.14
2022-10-04T00:38:28.079Z,16.03
2022-10-04T00:41:02.810Z,15.91
2022-10-04T00:43:34.722Z,16.02
2022-10-04T00:46:06.920Z,16.04
2022-10-04T00:48:41.995Z,16.08
2022-10-04T00:51:23.488Z,15.92
2022-10-04T00:54:02.322Z,15.81
2022-10-04T00:56:37.988Z,15.68
2022-10-04T00:59:26.044Z,16.02
2022-10-04T01:01:57.663Z,16.00
2022-10-04T01:04:36.893Z,15.85
2022-10-04T01:07:06.959Z,15.76
2022-10-04T01:09:40.135Z,15.84
2022-10-04T01:12:15.226Z,15.97
2022-10-04T01:14:55.829Z,16.04
2022-10-04T01:17:23.995Z,15.88
2022-10-04T01:19:54.576Z,16.02
2022-10-04T01:22:36.265Z,15.88
2022-10-04T01:25:05.209Z,15.80
2022-10-04T01:27:36.571Z,15.87
2022-10-04T01:30:09.470Z,15.82
2022-10-04T01:32:39.744Z,15.56
2022-10-04T01:35:08.781Z,15.64
2022-10-04T01:37:39.395Z,15.82
2022-10-04T01:40:09.924Z,15.79
2022-10-04T01:42:44.601Z,15.58
2022-10-04T01:45:20.434Z,15.77
2022-10-04T01:47:55.047Z,15.72
2022-10-04T01:50:31.167Z,15.42
2022-10-04T01:53:09.028Z,15.52
2022-10-04T01:55:41.222Z,15.50
2022-10-04T01:58:13.045Z,15.57
2022-10-04T02:00:51.165Z,15.66
2022-10-04T02:03:23.087Z,15.48
2022-10-04T02:05:54.353Z,15.39
2022-10-04T02:08:28.636Z,15.45
2022-10-04T02:10:58.021Z,15.31
2022-10-04T02:13:29.864Z,15.35
2022-10-04T02:15:59.500Z,15.37
2022-10-04T02:18:28.847Z,15.46
2022-10-04T02:20:57.576Z,15.38
2022-10-04T02:23:28.649Z,15.28
2022-10-04T02:25:56.758Z,15.49
2022-10-04T02:28:24.767Z,15.61
2022-10-04T02:31:12.098Z,15.30
2022-10-04T02:33:42.713Z,15.22
2022-10-04T02:36:11.878Z,15.43
2022-10-04T02:38:46.834Z,15.59
2022-10-04T02:41:27.776Z,15.45
2022-10-04T02:43:59.255Z,15.51
2022-10-04T02:46:30.402Z,15.32
2022-10-04T02:49:01.199Z,15.40
2022-10-04T02:51:34.996Z,15.35
2022-10-04T02:54:17.492Z,15.45
2022-10-04T02:56:45.953Z,15.22
2022-10-04T02:59:17.413Z,15.16
2022-10-04T03:01:53.730Z,15.28
2022-10-04T03:04:26.407Z,15.11
2022-10-04T03:06:55.998Z,15.10
2022-10-04T03:09:29.620Z,15.00
2022-10-04T03:11:58.238Z,14.96
2022-10-04T03:14:28.852Z,14.96
2022-10-04T03:17:00.637Z,14.96
2022-10-04T03:19:31.137Z,15.18
2022-10-04T03:22:03.183Z,14.98
2022-10-04T03:24:35.317Z,14.90
2022-10-04T03:27:07.000Z,14.96
2022-10-04T03:29:35.842Z,14.97
2022-10-04T03:32:05.756Z,15.00
2022-10-04T03:34:37.781Z,14.97
2022-10-04T03:37:09.293Z,14.95
2022-10-04T03:39:41.579Z,14.89
2022-10-04T03:42:13.807Z,15.00
2022-10-04T03:44:42.395Z,14.76
2022-10-04T03:47:12.283Z,14.71
2022-10-04T03:49:41.991Z,14.70
2022-10-04T03:52:18.960Z,14.59
2022-10-04T03:54:49.050Z,14.59
2022-10-04T03:57:17.169Z,14.67
2022-10-04T03:59:45.528Z,14.94
2022-10-04T04:02:20.756Z,14.84
2022-10-04T04:04:56.805Z,14.95
2022-10-04T04:07:30.193Z,14.84
2022-10-04T04:10:02.913Z,14.77
2022-10-04T04:12:39.097Z,14.88
2022-10-04T04:15:11.621Z,14.87
2022-10-04T04:17:42.044Z,14.78
2022-10-04T04:20:23.340Z,14.91
2022-10-04T04:23:00.154Z,14.92
2022-10-04T04:25:33.056Z,14.81
2022-10-04T04:28:14.010Z,14.98
2022-10-04T04:30:47.938Z,15.00
2022-10-04T04:33:24.715Z,14.94
2022-10-04T04:35:57.302Z,14.95
2022-10-04T04:38:26.557Z,14.98
2022-10-04T04:40:57.346Z,14.75
2022-10-04T04:43:27.609Z,14.91
2022-10-04T04:46:25.657Z,14.87
2022-10-04T04:48:49.440Z,14.93
2022-10-04T04:51:21.920Z,14.76
2022-10-04T04:53:51.745Z,14.85
2022-10-04T04:56:24.401Z,14.93
2022-10-04T04:58:55.856Z,15.04
2022-10-04T05:01:26.846Z,14.88
2022-10-04T05:04:02.222Z,14.96
2022-10-04T05:06:31.731Z,14.75
2022-10-04T05:08:59.679Z,14.92
2022-10-04T05:11:32.802Z,14.87
2022-10-04T05:14:06.106Z,14.74
2022-10-04T05:16:38.641Z,14.88
2022-10-04T05:19:14.000Z,14.85
2022-10-04T05:21:45.459Z,14.65
2022-10-04T05:24:20.869Z,14.82
2022-10-04T05:26:53.690Z,14.96
2022-10-04T05:29:25.188Z,14.89
2022-10-04T05:32:03.371Z,14.98
2022-10-04T05:34:33.762Z,15.09
2022-10-04T05:37:16.823Z,15.04
2022-10-04T05:39:49.388Z,14.93
2022-10-04T05:42:23.513Z,15.14
2022-10-04T05:44:53.268Z,15.31
2022-10-04T05:47:24.143Z,15.45
2022-10-04T05:49:55.562Z,15.57
2022-10-04T05:52:30.496Z,15.45
2022-10-04T05:55:23.220Z,15.59
2022-10-04T05:58:06.746Z,15.43
2022-10-04T06:00:43.177Z,15.59
2022-10-04T06:03:25.383Z,15.67
2022-10-04T06:05:56.988Z,15.65
2022-10-04T06:08:38.184Z,15.57
2022-10-04T06:11:38.818Z,15.49
2022-10-04T06:14:31.810Z,15.59
2022-10-04T06:17:15.782Z,15.68
2022-10-04T06:20:21.081Z,15.80
2022-10-04T06:22:52.345Z,15.59
2022-10-04T06:25:27.321Z,15.72
2022-10-04T06:28:01.568Z,15.66
2022-10-04T06:30:42.292Z,15.84
2022-10-04T06:33:36.284Z,15.86
2022-10-04T06:36:19.381Z,15.78
2022-10-04T06:39:04.240Z,15.66
2022-10-04T06:41:48.351Z,15.75
2022-10-04T06:44:51.419Z,15.86
2022-10-04T06:47:42.166Z,15.69
2022-10-04T06:50:26.147Z,15.82
2022-10-04T06:53:16.689Z,15.92
2022-10-04T06:56:07.322Z,15.86
2022-10-04T06:59:28.806Z,15.93
2022-10-04T07:02:00.034Z,16.00
2022-10-04T07:05:06.587Z,15.69
2022-10-04T07:07:37.951Z,15.75
2022-10-04T07:10:32.205Z,16.02
2022-10-04T07:13:12.594Z,15.94
2022-10-04T07:15:48.285Z,16.05
2022-10-04T07:18:23.180Z,16.03
2022-10-04T07:21:00.300Z,16.04
2022-10-04T07:23:32.739Z,16.26
2022-10-04T07:26:05.308Z,16.12
2022-10-04T07:28:58.834Z,15.90
2022-10-04T07:31:29.306Z,16.08
2022-10-04T07:34:02.277Z,16.20
2022-10-04T07:36:39.774Z,15.97
2022-10-04T07:39:14.372Z,16.05
2022-10-04T07:41:49.948Z,16.15
2022-10-04T07:44:27.845Z,16.25
2022-10-04T07:47:01.722Z,16.19
2022-10-04T07:49:32.085Z,16.11
2022-10-04T07:52:25.709Z,16.15
2022-10-04T07:55:05.313Z,16.19
2022-10-04T07:57:45.008Z,16.17
2022-10-04T08:00:18.711Z,16.12
2022-10-04T08:03:04.611Z,16.25
2022-10-04T08:05:38.667Z,16.21
2022-10-04T08:08:30.291Z,16.37
2022-10-04T08:11:18.048Z,16.06
2022-10-04T08:13:59.624Z,16.19
2022-10-04T08:16:36.906Z,16.48
2022-10-04T08:19:36.124Z,16.46
2022-10-04T08:22:12.468Z,16.64
2022-10-04T08:24:53.609Z,16.92
2022-10-04T08:27:40.041Z,17.03
2022-10-04T08:30:15.030Z,16.98
2022-10-04T08:33:06.437Z,16.73
2022-10-04T08:35:37.716Z,16.87
2022-10-04T08:38:36.812Z,16.83
2022-10-04T08:41:55.330Z,16.93
2022-10-04T08:45:07.933Z,17.25
2022-10-04T08:48:18.268Z,17.35
2022-10-04T08:51:16.640Z,17.47
2022-10-04T08:54:35.605Z,17.74
2022-10-04T08:57:22.374Z,17.83
2022-10-04T09:00:09.703Z,17.55
2022-10-04T09:03:35.461Z,17.56
2022-10-04T09:06:27.607Z,17.51
2022-10-04T09:09:31.412Z,17.27
2022-10-04T09:12:29.403Z,17.75
2022-10-04T09:15:21.436Z,17.73
2022-10-04T09:18:00.645Z,18.03
2022-10-04T09:20:46.065Z,18.25
2022-10-04T09:23:49.207Z,18.00
2022-10-04T09:26:23.251Z,17.79
2022-10-04T09:29:21.870Z,18.07
2022-10-04T09:32:13.946Z,17.87
2022-10-04T09:35:03.941Z,18.06
2022-10-04T09:37:44.664Z,17.95
2022-10-04T09:40:37.573Z,18.18
2022-10-04T09:43:30.667Z,18.18
2022-10-04T09:46:29.587Z,17.77
2022-10-04T09:49:14.137Z,17.82
2022-10-04T09:52:02.997Z,17.57
2022-10-04T09:54:55.090Z,18.05
2022-10-04T09:57:33.726Z,17.93
2022-10-04T10:00:23.336Z,18.16
2022-10-04T10:03:20.224Z,18.17
2022-10-04T10:06:03.279Z,18.20
2022-10-04T10:08:41.977Z,18.27
2022-10-04T10:11:34.881Z,18.39
2022-10-04T10:14:34.417Z,18.46
2022-10-04T10:17:15.248Z,18.70
2022-10-04T10:20:04.495Z,18.94
2022-10-04T10:22:56.921Z,18.80
2022-10-04T10:25:41.553Z,18.94
2022-10-04T10:28:35.429Z,19.08
2022-10-04T10:31:23.050Z,19.02
2022-10-04T10:34:23.094Z,18.95
2022-10-04T10:37:09.056Z,18.88
2022-10-04T10:40:04.094Z,19.30
2022-10-04T10:43:04.347Z,19.37
2022-10-04T10:45:58.906Z,19.36
2022-10-04T10:48:43.877Z,19.41
2022-10-04T10:51:15.182Z,19.26
2022-10-04T10:54:27.142Z,19.31
2022-10-04T10:57:06.076Z,19.53
2022-10-04T11:00:14.109Z,18.94
2022-10-04T11:03:20.504Z,19.10
2022-10-04T11:06:14.131Z,19.83
2022-10-04T11:09:32.774Z,19.56
2022-10-04T11:12:28.383Z,19.62
2022-10-04T11:15:34.938Z,19.12
2022-10-04T11:18:50.134Z,19.16
2022-10-04T11:22:07.273Z,19.20
2022-10-04T11:25:06.374Z,19.33
2022-10-04T11:27:51.835Z,19.52
2022-10-04T11:30:25.018Z,19.74
2022-10-04T11:33:24.641Z,20.33
2022-10-04T11:36:08.164Z,20.81
2022-10-04T11:38:54.245Z,20.60
2022-10-04T11:41:35.229Z,20.66
2022-10-04T11:44:46.758Z,20.46
2022-10-04T11:47:26.426Z,20.18
2022-10-04T11:50:08.709Z,20.23
2022-10-04T11:52:52.369Z,19.94
2022-10-04T11:55:31.191Z,19.99
2022-10-04T11:58:11.752Z,19.73
2022-10-04T12:01:08.264Z,19.33
2022-10-04T12:03:56.627Z,19.58
2022-10-04T12:06:51.743Z,19.58
2022-10-04T12:09:25.803Z,19.51
2022-10-04T12:12:40.186Z,19.41
2022-10-04T12:15:26.110Z,19.98
2022-10-04T12:18:26.640Z,20.31
2022-10-04T12:21:18.817Z,20.38
2022-10-04T12:24:04.260Z,20.38
2022-10-04T12:27:02.845Z,20.57
2022-10-04T12:30:04.450Z,20.68
2022-10-04T12:32:38.382Z,20.85
2022-10-04T12:35:23.652Z,20.61
2022-10-04T12:38:22.072Z,20.62
2022-10-04T12:41:00.880Z,20.57
2022-10-04T12:43:37.000Z,20.38
2022-10-04T12:46:22.287Z,20.25
2022-10-04T12:49:03.761Z,20.35
2022-10-04T12:51:50.885Z,20.36
2022-10-04T12:54:39.644Z,20.24
2022-10-04T12:57:26.127Z,20.24
2022-10-04T13:00:00.931Z,20.17
2022-10-04T13:02:52.625Z,20.36
2022-10-04T13:05:27.650Z,20.55
2022-10-04T13:08:20.267Z,20.66
2022-10-04T13:11:02.400Z,20.47
2022-10-04T13:13:49.122Z,20.31
2022-10-04T13:19:24.283Z,20.35
2022-10-04T13:22:37.867Z,20.43
2022-10-04T13:25:47.147Z,20.44
2022-10-04T13:28:24.601Z,20.35
2022-10-04T13:31:04.223Z,20.35
2022-10-04T13:33:43.424Z,20.37
2022-10-04T13:36:18.765Z,20.54
2022-10-04T13:39:18.080Z,20.16
2022-10-04T13:42:21.750Z,20.32
2022-10-04T13:45:24.252Z,20.61
2022-10-04T13:48:21.947Z,20.51
2022-10-04T13:51:11.555Z,20.36
2022-10-04T13:54:05.236Z,20.32
2022-10-04T13:56:54.816Z,20.38
2022-10-04T13:59:35.003Z,20.32
2022-10-04T14:02:36.339Z,20.44
2022-10-04T14:05:49.644Z,20.43
2022-10-04T14:08:36.746Z,20.50
2022-10-04T14:11:49.757Z,20.32
2022-10-04T14:14:43.033Z,20.06
2022-10-04T14:17:43.496Z,20.22
2022-10-04T14:20:39.039Z,20.16
2022-10-04T14:23:33.797Z,20.14
2022-10-04T14:26:36.526Z,19.96
2022-10-04T14:29:46.297Z,19.95
2022-10-04T14:32:59.157Z,19.88
2022-10-04T14:35:30.975Z,19.91
2022-10-04T14:38:31.453Z,19.99
2022-10-04T14:41:20.449Z,20.01
2022-10-04T14:44:31.265Z,20.15
2022-10-04T14:47:16.895Z,19.99
2022-10-04T14:50:01.051Z,20.01
2022-10-04T14:52:44.536Z,19.91
2022-10-04T14:55:34.574Z,19.97
2022-10-04T14:58:18.705Z,20.03
2022-10-04T15:01:08.705Z,19.99
2022-10-04T15:03:46.006Z,19.91
2022-10-04T15:06:26.060Z,19.87
2022-10-04T15:09:27.522Z,20.06
2022-10-04T15:12:25.630Z,20.10
2022-10-04T15:15:32.206Z,19.95
2022-10-04T15:18:04.718Z,20.00
2022-10-04T15:20:38.951Z,19.74
2022-10-04T15:23:18.196Z,19.78
2022-10-04T15:25:48.361Z,19.87
2022-10-04T15:28:46.983Z,19.69
2022-10-04T15:31:23.894Z,19.59
2022-10-04T15:34:03.025Z,19.67
2022-10-04T15:37:15.658Z,19.59
2022-10-04T15:40:09.513Z,19.57
2022-10-04T15:42:37.696Z,19.50
2022-10-04T15:45:32.386Z,19.55
2022-10-04T15:48:24.783Z,19.63
2022-10-04T15:51:04.279Z,19.61
2022-10-04T15:53:48.942Z,19.57
2022-10-04T15:56:32.390Z,19.53
2022-10-04T15:59:28.670Z,19.50
2022-10-04T16:02:26.625Z,19.59
2022-10-04T16:05:07.113Z,19.22
2022-10-04T16:07:51.596Z,19.33
2022-10-04T16:10:26.648Z,19.35
2022-10-04T16:13:18.526Z,19.42
2022-10-04T16:15:49.513Z,19.48
2022-10-04T16:18:40.458Z,19.32
2022-10-04T16:21:20.949Z,19.31
2022-10-04T16:23:49.117Z,19.02
2022-10-04T16:27:00.856Z,19.00
2022-10-04T16:29:36.570Z,18.96
2022-10-04T16:32:14.027Z,18.96
2022-10-04T16:34:51.224Z,19.07
2022-10-04T16:37:32.519Z,18.87
2022-10-04T16:40:05.567Z,18.94
2022-10-04T16:42:53.746Z,18.87
2022-10-04T16:45:42.937Z,18.98
2022-10-04T16:48:26.943Z,18.81
2022-10-04T16:51:22.059Z,18.77
2022-10-04T16:53:54.492Z,18.68
2022-10-04T16:56:24.266Z,18.64
2022-10-04T16:58:56.814Z,18.64
2022-10-04T17:02:16.973Z,18.57
2022-10-04T17:05:07.978Z,18.48
2022-10-04T17:07:53.917Z,18.42
2022-10-04T17:10:34.234Z,18.37
2022-10-04T17:13:15.476Z,18.23
2022-10-04T17:16:05.324Z,18.18
2022-10-04T17:18:45.202Z,18.12
2022-10-04T17:21:35.141Z,18.10
2022-10-04T17:24:23.141Z,18.06
2022-10-04T17:27:05.820Z,18.05
2022-10-04T17:29:58.524Z,18.17
2022-10-04T17:32:32.013Z,18.02
2022-10-04T17:35:13.728Z,18.09
2022-10-04T17:37:50.838Z,18.03
2022-10-04T17:40:38.470Z,17.98
2022-10-04T17:43:19.795Z,17.93
2022-10-04T17:46:16.697Z,17.85
2022-10-04T17:49:05.907Z,17.85
2022-10-04T17:51:59.012Z,17.84
2022-10-04T17:54:51.192Z,17.82
2022-10-04T17:57:27.119Z,17.67
2022-10-04T18:00:06.760Z,17.67
2022-10-04T18:02:51.352Z,17.76
2022-10-04T18:05:22.543Z,17.81
2022-10-04T18:07:57.715Z,17.61
2022-10-04T18:10:30.768Z,17.43
2022-10-04T18:13:02.008Z,17.43
2022-10-04T18:15:34.840Z,17.45
2022-10-04T18:18:16.051Z,17.44
2022-10-04T18:21:07.906Z,17.38
2022-10-04T18:23:39.458Z,17.54
2022-10-04T18:26:12.870Z,17.56
2022-10-04T18:28:40.537Z,17.55
2022-10-04T18:31:30.296Z,17.56
2022-10-04T18:33:59.357Z,17.43
2022-10-04T18:36:31.912Z,17.28
2022-10-04T18:39:18.074Z,17.30
2022-10-04T18:41:56.802Z,17.27
2022-10-04T18:44:29.423Z,17.12
2022-10-04T18:46:58.828Z,17.34
2022-10-04T18:49:30.311Z,17.19
2022-10-04T18:52:09.976Z,17.12
2022-10-04T18:54:45.468Z,17.09
2022-10-04T18:57:26.171Z,17.06
2022-10-04T19:00:22.593Z,17.22
2022-10-04T19:02:59.888Z,17.00
2022-10-04T19:05:35.341Z,17.08
2022-10-04T19:08:09.506Z,17.03
2022-10-04T19:10:43.128Z,16.88
2022-10-04T19:13:28.547Z,16.95
2022-10-04T19:16:15.665Z,16.92
2022-10-04T19:18:59.228Z,16.90
2022-10-04T19:21:33.888Z,16.93
2022-10-04T19:24:28.752Z,16.86
2022-10-04T19:27:01.178Z,16.93
2022-10-04T19:29:44.204Z,16.87
2022-10-04T19:32:23.994Z,16.85
2022-10-04T19:35:01.737Z,16.81
2022-10-04T19:37:36.390Z,16.71
2022-10-04T19:40:10.984Z,16.59
2022-10-04T19:42:45.561Z,16.74
2022-10-04T19:45:25.033Z,16.76
2022-10-04T19:47:57.956Z,16.72
2022-10-04T19:50:29.271Z,16.75
2022-10-04T19:53:03.445Z,16.75
2022-10-04T19:55:43.904Z,16.74
2022-10-04T19:58:24.062Z,16.63
2022-10-04T20:00:54.164Z,16.60
2022-10-04T20:03:22.108Z,16.70
2022-10-04T20:05:53.235Z,16.58
2022-10-04T20:08:52.312Z,16.65
2022-10-04T20:11:22.847Z,16.54
2022-10-04T20:14:28.274Z,16.47
2022-10-04T20:17:07.309Z,16.41
2022-10-04T20:19:40.723Z,16.30
2022-10-04T20:22:28.364Z,16.51
2022-10-04T20:24:56.500Z,16.31
2022-10-04T20:27:57.712Z,16.38
2022-10-04T20:30:25.809Z,16.01
2022-10-04T20:32:57.112Z,16.04
2022-10-04T20:35:58.189Z,15.99
2022-10-04T20:38:44.346Z,15.89
2022-10-04T20:42:03.119Z,15.99
2022-10-04T20:44:46.273Z,16.12
2022-10-04T20:47:23.988Z,16.06
2022-10-04T20:49:56.823Z,16.04
2022-10-04T20:52:28.294Z,15.95
2022-10-04T20:54:57.264Z,16.07
2022-10-04T20:57:25.296Z,16.11
2022-10-04T20:59:55.594Z,15.94
2022-10-04T21:02:27.673Z,15.99
2022-10-04T21:05:13.555Z,15.79
2022-10-04T21:07:41.488Z,15.78
2022-10-04T21:10:18.586Z,15.84
2022-10-04T21:12:48.100Z,15.72
2022-10-04T21:15:24.104Z,15.61
2022-10-04T21:18:04.098Z,15.73
2022-10-04T21:20:47.149Z,15.88
2022-10-04T21:23:23.359Z,15.90
2022-10-04T21:25:51.547Z,15.92
2022-10-04T21:28:36.056Z,15.86
2022-10-04T21:31:04.998Z,15.68
2022-10-04T21:33:34.112Z,15.64
2022-10-04T21:36:04.172Z,15.51
2022-10-04T21:38:32.074Z,15.55
2022-10-04T21:40:59.895Z,15.57
2022-10-04T21:43:27.936Z,15.70
2022-10-04T21:45:55.970Z,15.61
2022-10-04T21:48:24.514Z,15.57
2022-10-04T21:50:54.883Z,15.60
2022-10-04T21:53:24.309Z,15.51
2022-10-04T21:55:52.163Z,15.51
2022-10-04T21:58:19.946Z,15.67
2022-10-04T22:00:47.753Z,15.49
2022-10-04T22:03:15.673Z,15.49
2022-10-04T22:05:43.514Z,15.50
2022-10-04T22:08:11.353Z,15.44
2022-10-04T22:10:41.010Z,15.50
2022-10-04T22:13:08.802Z,15.59
2022-10-04T22:15:36.885Z,15.58
2022-10-04T22:18:04.988Z,15.53
2022-10-04T22:20:33.430Z,15.29
2022-10-04T22:23:02.980Z,15.38
2022-10-04T22:25:30.816Z,15.39
2022-10-04T22:28:01.180Z,15.36
2022-10-04T22:30:31.163Z,15.39
2022-10-04T22:33:01.601Z,15.33
2022-10-04T22:35:33.781Z,15.40
2022-10-04T22:38:01.591Z,15.26
2022-10-04T22:40:29.835Z,15.35
2022-10-04T22:43:00.823Z,15.41
2022-10-04T22:45:33.398Z,15.21
2022-10-04T22:48:07.662Z,15.36
2022-10-04T22:50:37.961Z,15.17
2022-10-04T22:53:13.157Z,15.09
2022-10-04T22:55:41.182Z,15.06
2022-10-04T22:58:12.474Z,15.09
2022-10-04T23:00:41.911Z,15.12
2022-10-04T23:03:23.445Z,15.26
2022-10-04T23:05:51.380Z,15.15
2022-10-04T23:08:19.228Z,15.16
2022-10-04T23:10:47.353Z,15.09
2022-10-04T23:13:15.313Z,15.21
2022-10-04T23:15:44.504Z,15.13
2022-10-04T23:18:15.615Z,15.17
2022-10-04T23:20:44.466Z,15.05
2022-10-04T23:23:17.240Z,14.79
2022-10-04T23:25:47.085Z,15.14
2022-10-04T23:28:16.858Z,15.12
2022-10-04T23:30:49.227Z,15.10
2022-10-04T23:33:20.776Z,15.07
2022-10-04T23:35:49.645Z,15.13
2022-10-04T23:38:19.958Z,15.04
2022-10-04T23:40:47.964Z,14.90
2022-10-04T23:43:21.097Z,14.90
2022-10-04T23:45:50.393Z,14.85
2022-10-04T23:48:23.104Z,15.03
2022-10-04T23:50:51.863Z,15.00
2022-10-04T23:53:26.661Z,14.93
2022-10-04T23:55:56.090Z,14.91
2022-10-04T23:58:28.108Z,14.90
